Time;durP1;ratioP1;P1;durP2;ratioP2;P2;SDS_P1;SDS_P2;PMS_P1;PMS_P2;Temp;Humidity;BMP_temperature;BMP_pressure;BME280_temperature;BME280_humidity;BME280_pressure;Samples;Min_cycle;Max_cycle;Signal;HPM_P1;HPM_P2
2022/06/30 00:01:30;;;;;;;3.50;2.50;;;21.10;91.80;;;;;;5058770;28;20490;-75
2022/06/30 00:03:57;;;;;;;3.50;3.03;;;21.10;91.90;;;;;;5057285;28;20439;-74
2022/06/30 00:06:25;;;;;;;3.27;2.20;;;21.10;91.90;;;;;;5056257;28;20527;-74
2022/06/30 00:08:53;;;;;;;3.93;2.37;;;21.00;92.00;;;;;;5055899;28;21221;-73
2022/06/30 00:11:21;;;;;;;3.87;2.47;;;21.00;92.00;;;;;;5049874;28;20854;-74
2022/06/30 00:13:48;;;;;;;2.77;2.00;;;21.10;92.00;;;;;;5051026;28;20516;-73
2022/06/30 00:16:16;;;;;;;3.53;2.50;;;21.10;92.10;;;;;;5055928;28;20437;-74
2022/06/30 00:18:43;;;;;;;4.87;2.03;;;21.10;92.10;;;;;;5072119;28;20471;-74
2022/06/30 00:21:11;;;;;;;3.20;2.37;;;21.10;92.10;;;;;;5066333;28;20493;-72
2022/06/30 00:23:38;;;;;;;3.27;2.47;;;21.10;92.10;;;;;;5065154;28;20449;-73
2022/06/30 00:26:07;;;;;;;3.13;2.47;;;21.00;92.10;;;;;;5051640;28;20434;-73
2022/06/30 00:28:34;;;;;;;2.80;1.70;;;21.00;92.10;;;;;;5047688;28;20433;-73
2022/06/30 00:31:01;;;;;;;3.80;2.40;;;21.00;92.20;;;;;;5051072;28;20548;-74
2022/06/30 00:33:28;;;;;;;3.00;2.30;;;21.00;92.20;;;;;;5051390;28;20476;-75
2022/06/30 00:35:55;;;;;;;3.57;2.37;;;21.00;92.40;;;;;;5057286;28;20860;-74
2022/06/30 00:38:22;;;;;;;2.40;2.20;;;20.90;92.40;;;;;;5057280;28;20445;-73
2022/06/30 00:40:49;;;;;;;2.47;2.27;;;20.80;92.80;;;;;;5061020;28;20473;-75
2022/06/30 00:43:17;;;;;;;2.73;2.43;;;20.80;93.10;;;;;;5055736;28;20477;-73
2022/06/30 00:45:46;;;;;;;2.70;2.30;;;20.70;93.30;;;;;;5049946;28;20883;-73
2022/06/30 00:48:14;;;;;;;3.00;2.70;;;20.60;93.50;;;;;;5060545;28;20470;-73
2022/06/30 00:50:41;;;;;;;3.43;3.13;;;20.60;93.60;;;;;;5067368;28;20871;-72
2022/06/30 00:53:10;;;;;;;3.37;2.50;;;20.50;94.00;;;;;;5063276;28;20463;-75
2022/06/30 00:55:37;;;;;;;2.40;2.10;;;20.40;94.30;;;;;;5057460;28;20432;-74
2022/06/30 00:58:06;;;;;;;3.80;2.63;;;20.30;94.70;;;;;;5059114;28;20449;-74
2022/06/30 01:00:36;;;;;;;4.27;3.10;;;20.20;95.00;;;;;;5063316;28;20495;-73
2022/06/30 01:03:10;;;;;;;3.30;2.90;;;20.20;95.10;;;;;;5072090;28;20446;-74
2022/06/30 01:05:38;;;;;;;4.37;2.97;;;20.20;95.00;;;;;;5060287;28;20445;-73
2022/06/30 01:08:06;;;;;;;3.90;2.97;;;20.20;95.00;;;;;;5063468;28;20437;-75
2022/06/30 01:13:17;;;;;;;5.53;2.87;;;20.20;95.10;;;;;;5057182;28;20428;-75
2022/06/30 01:15:45;;;;;;;3.07;2.50;;;20.10;95.00;;;;;;5054209;28;20446;-72
2022/06/30 01:18:12;;;;;;;4.87;3.70;;;20.20;95.00;;;;;;5039353;28;20448;-74
2022/06/30 01:20:39;;;;;;;5.10;4.60;;;20.10;95.10;;;;;;5042463;28;20641;-74
2022/06/30 01:23:08;;;;;;;4.63;3.17;;;20.10;95.10;;;;;;5051751;28;20442;-76
2022/06/30 01:25:35;;;;;;;4.30;3.90;;;20.10;95.00;;;;;;5047982;28;20463;-71
2022/06/30 01:28:02;;;;;;;4.07;3.50;;;20.10;95.20;;;;;;5052842;28;21614;-73
2022/06/30 01:30:30;;;;;;;3.97;3.40;;;20.10;95.10;;;;;;5055825;28;20505;-73
2022/06/30 01:32:57;;;;;;;4.53;4.03;;;20.00;95.10;;;;;;5054498;28;20472;-72
2022/06/30 01:35:23;;;;;;;4.07;3.30;;;20.00;95.10;;;;;;5058028;28;20511;-71
2022/06/30 01:37:55;;;;;;;6.70;3.97;;;20.00;95.30;;;;;;5058502;28;20440;-72
2022/06/30 01:40:25;;;;;;;4.33;3.50;;;20.00;95.30;;;;;;5062400;28;20435;-73
2022/06/30 01:42:52;;;;;;;5.07;3.63;;;20.00;95.40;;;;;;5058296;28;20559;-73
2022/06/30 01:45:20;;;;;;;4.57;3.37;;;19.90;95.50;;;;;;5043189;28;20443;-72
2022/06/30 01:47:47;;;;;;;5.40;4.07;;;19.90;95.60;;;;;;5059711;28;20516;-72
2022/06/30 01:50:16;;;;;;;7.07;3.30;;;20.00;95.60;;;;;;5048754;28;20433;-72
2022/06/30 01:52:43;;;;;;;6.37;4.23;;;19.90;95.80;;;;;;5050722;28;21030;-73
2022/06/30 01:55:10;;;;;;;4.63;3.70;;;19.90;95.80;;;;;;5053884;28;20468;-74
2022/06/30 01:57:39;;;;;;;9.10;3.60;;;20.00;95.80;;;;;;5048103;28;21003;-76
2022/06/30 02:00:08;;;;;;;6.17;4.37;;;20.00;95.70;;;;;;5055646;28;20525;-74
2022/06/30 02:02:35;;;;;;;7.80;4.83;;;20.00;95.80;;;;;;5052680;28;20479;-73
2022/06/30 02:05:02;;;;;;;4.23;3.70;;;20.00;95.90;;;;;;5057847;28;20437;-73
2022/06/30 02:07:29;;;;;;;5.97;5.20;;;20.00;95.90;;;;;;5053463;28;20530;-75
2022/06/30 02:09:56;;;;;;;4.07;3.67;;;20.00;96.00;;;;;;5050830;28;20903;-74
2022/06/30 02:15:11;;;;;;;4.40;4.00;;;19.90;96.10;;;;;;5050083;28;20570;-74
2022/06/30 02:17:39;;;;;;;11.20;4.40;;;19.90;96.30;;;;;;5053968;28;20435;-72
2022/06/30 02:20:08;;;;;;;5.30;4.23;;;19.90;96.40;;;;;;5050213;28;20434;-75
2022/06/30 02:22:35;;;;;;;4.10;3.70;;;19.90;96.50;;;;;;5050808;28;20597;-75
2022/06/30 02:25:03;;;;;;;6.47;4.23;;;19.80;96.70;;;;;;5051360;28;20528;-74
2022/06/30 02:27:30;;;;;;;5.47;4.23;;;19.80;96.80;;;;;;5049632;28;20435;-72
2022/06/30 02:29:57;;;;;;;5.23;4.00;;;19.80;96.90;;;;;;5046698;28;20533;-73
2022/06/30 02:32:25;;;;;;;6.00;3.73;;;19.70;96.90;;;;;;5051773;28;20467;-73
2022/06/30 02:34:53;;;;;;;5.57;3.90;;;19.70;97.30;;;;;;5053692;28;20531;-73
2022/06/30 02:37:21;;;;;;;4.90;4.07;;;19.60;97.30;;;;;;5055873;28;20446;-73
2022/06/30 02:39:48;;;;;;;5.60;5.10;;;19.60;97.60;;;;;;5059162;28;20465;-72
2022/06/30 02:42:16;;;;;;;4.63;4.13;;;19.50;97.80;;;;;;5053172;28;20490;-72
2022/06/30 02:44:43;;;;;;;6.40;4.37;;;19.50;98.10;;;;;;5053134;28;20834;-75
2022/06/30 02:47:10;;;;;;;6.70;4.67;;;19.40;98.30;;;;;;5053832;28;20447;-73
2022/06/30 02:49:39;;;;;;;10.80;5.40;;;19.30;98.60;;;;;;5052694;28;20517;-73
2022/06/30 02:52:07;;;;;;;6.53;4.23;;;19.30;99.00;;;;;;5052003;28;20464;-74
2022/06/30 02:54:34;;;;;;;7.30;4.93;;;19.20;99.40;;;;;;5053792;28;20438;-74
2022/06/30 02:57:03;;;;;;;5.20;4.20;;;19.10;99.20;;;;;;5063241;28;20438;-74
2022/06/30 02:59:30;;;;;;;6.97;4.73;;;19.10;99.40;;;;;;5058135;28;20507;-73
2022/06/30 03:01:58;;;;;;;5.47;4.20;;;19.10;99.70;;;;;;5067973;28;20492;-71
2022/06/30 03:04:25;;;;;;;5.10;4.57;;;19.00;99.90;;;;;;5053996;28;20458;-72
2022/06/30 03:06:55;;;;;;;5.90;5.13;;;18.90;99.90;;;;;;5056951;28;20979;-75
2022/06/30 03:09:22;;;;;;;5.07;4.57;;;18.90;99.90;;;;;;5054660;28;20464;-73
2022/06/30 03:11:49;;;;;;;7.33;5.00;;;18.80;99.90;;;;;;5050584;28;20457;-73
2022/06/30 03:14:16;;;;;;;5.47;4.37;;;18.70;99.90;;;;;;5047613;28;20573;-74
2022/06/30 03:16:43;;;;;;;6.00;5.13;;;18.60;99.90;;;;;;5064507;28;20440;-72
2022/06/30 03:19:10;;;;;;;5.40;4.90;;;18.50;99.90;;;;;;5060513;28;20522;-72
2022/06/30 03:21:37;;;;;;;6.70;5.20;;;18.50;99.90;;;;;;5060262;28;20567;-72
2022/06/30 03:24:06;;;;;;;6.00;4.97;;;18.50;99.90;;;;;;5060134;28;20464;-72
2022/06/30 03:26:33;;;;;;;6.57;4.63;;;18.50;99.90;;;;;;5055143;28;20442;-73
2022/06/30 03:29:00;;;;;;;6.20;4.83;;;18.40;99.90;;;;;;5054966;28;20516;-72
2022/06/30 03:31:27;;;;;;;5.10;4.70;;;18.40;99.90;;;;;;5051170;28;21090;-72
2022/06/30 03:33:54;;;;;;;6.50;4.70;;;18.40;99.90;;;;;;5056623;28;20529;-74
2022/06/30 03:36:21;;;;;;;7.57;4.10;;;18.40;99.90;;;;;;5055608;28;20437;-74
2022/06/30 03:38:47;;;;;;;4.93;4.17;;;18.40;99.90;;;;;;5056110;28;20440;-73
2022/06/30 03:41:16;;;;;;;5.13;4.13;;;18.40;99.90;;;;;;5054520;28;21043;-72
2022/06/30 03:43:43;;;;;;;7.77;4.73;;;18.40;99.90;;;;;;5056043;28;20529;-74
2022/06/30 03:46:10;;;;;;;11.30;5.87;;;18.40;99.90;;;;;;5055288;28;20438;-75
2022/06/30 03:48:37;;;;;;;5.73;3.93;;;18.50;99.90;;;;;;5055801;28;20897;-74
2022/06/30 03:51:04;;;;;;;6.00;4.70;;;18.40;99.90;;;;;;5054688;28;20485;-73
2022/06/30 03:53:31;;;;;;;7.50;5.27;;;18.50;99.90;;;;;;5048982;28;20538;-73
2022/06/30 03:55:58;;;;;;;7.63;5.23;;;18.60;99.90;;;;;;5060517;28;20458;-72
2022/06/30 03:58:26;;;;;;;8.83;5.77;;;18.70;99.90;;;;;;5054243;28;20494;-74
2022/06/30 04:00:53;;;;;;;5.37;4.83;;;18.80;99.90;;;;;;5049401;28;20860;-73
2022/06/30 04:03:20;;;;;;;6.40;4.80;;;18.80;99.90;;;;;;5051391;28;20524;-74
2022/06/30 04:05:47;;;;;;;6.00;4.40;;;18.90;99.90;;;;;;5049107;28;20437;-73
2022/06/30 04:08:14;;;;;;;6.43;4.93;;;19.10;99.90;;;;;;5049195;28;20435;-74
2022/06/30 04:10:41;;;;;;;5.30;4.63;;;19.40;99.90;;;;;;5049405;28;20629;-74
2022/06/30 04:13:08;;;;;;;8.27;5.10;;;20.10;99.50;;;;;;5052453;28;20513;-74
2022/06/30 04:15:36;;;;;;;5.77;3.83;;;20.90;97.60;;;;;;5054322;28;20536;-73
2022/06/30 04:18:03;;;;;;;4.90;4.33;;;21.70;96.10;;;;;;5056179;28;20876;-74
2022/06/30 04:20:30;;;;;;;3.87;3.50;;;22.50;94.60;;;;;;5051952;28;20545;-73
2022/06/30 04:22:57;;;;;;;5.33;4.50;;;23.30;92.60;;;;;;5055661;28;20477;-73
2022/06/30 04:25:24;;;;;;;4.10;3.70;;;24.00;91.50;;;;;;5057208;28;20532;-73
2022/06/30 04:27:53;;;;;;;4.60;4.20;;;24.70;90.40;;;;;;5053303;28;20625;-75
2022/06/30 04:33:03;;;;;;;5.60;3.30;;;25.60;86.20;;;;;;5060931;28;20480;-72
2022/06/30 04:35:30;;;;;;;4.00;3.63;;;26.20;85.00;;;;;;5063219;28;20680;-74
2022/06/30 04:37:57;;;;;;;7.17;4.00;;;26.80;83.30;;;;;;5054972;28;20438;-74
2022/06/30 04:43:09;;;;;;;4.57;4.10;;;27.60;79.10;;;;;;5054433;28;20472;-76
2022/06/30 04:45:36;;;;;;;5.80;3.67;;;27.60;78.50;;;;;;5054566;28;20442;-75
2022/06/30 04:48:05;;;;;;;4.63;3.93;;;28.20;77.30;;;;;;5055218;28;20434;-75
2022/06/30 04:50:32;;;;;;;7.50;4.57;;;28.80;75.30;;;;;;5056199;28;20448;-74
2022/06/30 04:52:59;;;;;;;6.30;3.90;;;29.10;73.60;;;;;;5055782;28;20462;-74
2022/06/30 04:55:25;;;;;;;6.50;3.70;;;29.20;73.30;;;;;;5066826;28;20497;-73
2022/06/30 04:57:52;;;;;;;4.57;3.80;;;29.70;72.40;;;;;;5058691;28;20492;-73
2022/06/30 05:00:19;;;;;;;3.90;3.53;;;30.20;70.60;;;;;;5056659;28;20441;-72
2022/06/30 05:02:47;;;;;;;4.50;4.10;;;30.50;69.40;;;;;;5055508;28;20488;-75
2022/06/30 05:05:15;;;;;;;4.60;4.10;;;30.90;68.60;;;;;;5046901;28;20484;-74
2022/06/30 05:07:43;;;;;;;4.20;3.20;;;31.30;67.10;;;;;;5051781;28;20451;-75
2022/06/30 05:10:10;;;;;;;4.07;3.67;;;31.70;66.00;;;;;;5048388;28;20519;-75
2022/06/30 05:12:38;;;;;;;5.60;4.00;;;32.30;64.80;;;;;;5053445;28;20458;-73
2022/06/30 05:15:06;;;;;;;5.30;3.47;;;32.20;63.70;;;;;;5054144;28;20450;-74
2022/06/30 05:17:34;;;;;;;5.43;3.77;;;32.40;62.70;;;;;;5051882;28;20935;-74
2022/06/30 05:20:02;;;;;;;10.47;3.63;;;32.50;62.10;;;;;;5049853;28;20442;-75
2022/06/30 05:22:31;;;;;;;3.20;2.90;;;32.40;62.20;;;;;;5049499;28;20986;-74
2022/06/30 05:27:46;;;;;;;6.23;3.70;;;32.70;61.10;;;;;;5051164;28;20503;-74
2022/06/30 05:30:13;;;;;;;6.83;3.70;;;32.40;61.00;;;;;;5045810;28;20442;-74
2022/06/30 05:32:40;;;;;;;5.17;3.47;;;32.50;60.80;;;;;;5050283;28;20545;-74
2022/06/30 05:35:08;;;;;;;8.27;3.63;;;32.80;60.50;;;;;;5053855;28;20442;-74
2022/06/30 05:37:37;;;;;;;8.33;3.97;;;32.90;59.50;;;;;;5053692;28;20827;-74
2022/06/30 05:40:04;;;;;;;7.23;3.70;;;33.50;59.60;;;;;;5052910;28;20448;-73
2022/06/30 05:42:31;;;;;;;6.30;3.90;;;33.70;58.60;;;;;;5053371;28;20477;-74
2022/06/30 05:44:58;;;;;;;7.50;3.50;;;33.90;58.00;;;;;;5049918;28;20435;-75
2022/06/30 05:47:25;;;;;;;5.93;3.73;;;34.20;57.70;;;;;;5046428;28;20449;-73
2022/06/30 05:49:52;;;;;;;4.53;3.03;;;34.10;57.20;;;;;;5051490;28;20446;-75
2022/06/30 05:52:19;;;;;;;6.40;3.90;;;34.00;57.20;;;;;;5045953;28;20537;-74
2022/06/30 05:54:48;;;;;;;6.53;3.87;;;34.30;57.00;;;;;;5047353;28;20798;-74
2022/06/30 05:57:15;;;;;;;4.57;4.10;;;34.00;56.90;;;;;;5053380;28;21008;-74
2022/06/30 05:59:42;;;;;;;13.90;4.50;;;34.00;57.20;;;;;;5051390;28;20453;-76
2022/06/30 06:02:09;;;;;;;5.47;3.60;;;34.30;57.00;;;;;;5050431;28;20936;-73
2022/06/30 06:04:36;;;;;;;5.73;3.83;;;34.50;56.70;;;;;;5049070;28;20518;-74
2022/06/30 06:07:03;;;;;;;5.87;3.80;;;34.70;56.30;;;;;;5044114;28;20442;-74
2022/06/30 06:09:30;;;;;;;4.57;4.17;;;34.50;56.60;;;;;;5041359;28;20436;-73
2022/06/30 06:12:00;;;;;;;5.40;3.37;;;35.00;55.90;;;;;;5053102;28;20553;-75
2022/06/30 06:14:26;;;;;;;5.23;3.47;;;35.10;56.00;;;;;;5042912;28;20539;-73
2022/06/30 06:16:53;;;;;;;3.87;3.57;;;35.00;56.10;;;;;;5052021;28;20527;-73
2022/06/30 06:19:21;;;;;;;5.73;4.00;;;35.50;55.80;;;;;;5045431;28;20450;-74
2022/06/30 06:21:49;;;;;;;7.33;4.80;;;35.50;55.40;;;;;;5055152;28;20453;-75
2022/06/30 06:24:18;;;;;;;6.07;4.33;;;35.60;55.40;;;;;;5049176;28;20434;-78
2022/06/30 06:26:46;;;;;;;9.50;4.97;;;35.70;55.30;;;;;;5050973;28;20454;-73
2022/06/30 06:29:15;;;;;;;5.00;4.50;;;35.30;55.80;;;;;;5050588;28;20436;-71
2022/06/30 06:31:43;;;;;;;8.37;4.37;;;35.20;56.00;;;;;;5049449;28;20568;-74
2022/06/30 06:34:10;;;;;;;4.50;4.10;;;35.40;56.40;;;;;;5052777;28;20492;-74
2022/06/30 06:36:37;;;;;;;7.80;4.40;;;35.50;55.80;;;;;;5053342;28;20521;-73
2022/06/30 06:39:15;;;;;;;7.80;4.70;;;35.10;56.30;;;;;;5055068;28;20450;-72
2022/06/30 06:41:44;;;;;;;6.30;4.70;;;34.80;57.00;;;;;;5041079;28;20570;-74
2022/06/30 06:44:11;;;;;;;5.10;4.60;;;35.00;57.40;;;;;;5049802;28;20442;-72
2022/06/30 06:46:40;;;;;;;7.47;4.37;;;35.40;56.60;;;;;;5049963;28;20838;-73
2022/06/30 06:49:08;;;;;;;5.03;4.50;;;35.10;57.10;;;;;;5048492;28;20444;-73
2022/06/30 06:51:35;;;;;;;5.70;4.80;;;35.40;57.00;;;;;;5047503;28;20557;-74
2022/06/30 06:54:02;;;;;;;5.27;3.97;;;35.60;56.60;;;;;;5050168;28;20465;-74
2022/06/30 06:56:30;;;;;;;6.07;4.37;;;35.50;56.50;;;;;;5048979;28;20439;-77
2022/06/30 06:58:57;;;;;;;5.77;4.83;;;35.40;56.90;;;;;;5047011;28;20446;-72
2022/06/30 07:01:24;;;;;;;5.90;5.30;;;35.40;57.10;;;;;;5053238;28;20545;-72
2022/06/30 07:03:58;;;;;;;5.40;4.87;;;35.60;57.00;;;;;;5057950;28;20533;-72
2022/06/30 07:06:25;;;;;;;6.73;4.90;;;35.40;57.20;;;;;;5053214;28;20766;-72
2022/06/30 07:08:52;;;;;;;6.97;4.13;;;35.20;57.50;;;;;;5054420;28;20445;-72
2022/06/30 07:11:19;;;;;;;5.20;4.60;;;35.20;57.70;;;;;;5050496;28;20456;-72
2022/06/30 07:13:46;;;;;;;4.90;4.50;;;35.40;57.50;;;;;;5047737;28;20517;-73
2022/06/30 07:16:13;;;;;;;6.60;5.10;;;35.30;57.50;;;;;;5052283;28;20510;-73
2022/06/30 07:18:40;;;;;;;5.73;4.30;;;35.30;57.50;;;;;;5045552;28;20492;-72
2022/06/30 07:21:08;;;;;;;4.40;4.00;;;35.10;57.70;;;;;;5050503;28;20465;-72
2022/06/30 07:23:35;;;;;;;5.70;5.20;;;35.60;57.70;;;;;;5050237;28;20496;-73
2022/06/30 07:26:02;;;;;;;5.03;4.27;;;35.30;57.50;;;;;;5047738;28;20942;-71
2022/06/30 07:28:29;;;;;;;5.13;4.63;;;35.40;57.90;;;;;;5045222;28;20438;-73
2022/06/30 07:30:56;;;;;;;5.63;4.33;;;35.50;57.80;;;;;;5045502;28;20866;-73
2022/06/30 07:33:23;;;;;;;7.83;4.73;;;35.50;57.70;;;;;;5047825;28;20435;-74
2022/06/30 07:35:49;;;;;;;6.77;4.70;;;35.70;57.60;;;;;;5042534;28;20443;-73
2022/06/30 07:38:18;;;;;;;6.83;5.00;;;36.30;57.10;;;;;;5051488;28;20461;-73
2022/06/30 07:40:45;;;;;;;8.03;4.33;;;36.50;56.10;;;;;;5046635;28;20442;-73
2022/06/30 07:43:11;;;;;;;5.97;4.10;;;36.60;55.80;;;;;;5045696;28;20470;-77
2022/06/30 07:45:38;;;;;;;5.57;5.07;;;37.00;55.80;;;;;;5050173;28;20845;-74
2022/06/30 07:48:05;;;;;;;6.00;5.27;;;36.30;56.00;;;;;;5048022;28;20871;-73
2022/06/30 07:50:33;;;;;;;4.50;4.10;;;35.30;57.10;;;;;;5050175;28;20532;-73
2022/06/30 07:52:59;;;;;;;6.13;4.87;;;35.80;57.70;;;;;;5050543;28;20593;-73
2022/06/30 07:55:29;;;;;;;5.20;4.70;;;36.50;56.00;;;;;;5047228;28;20442;-73
2022/06/30 07:57:56;;;;;;;5.03;4.63;;;37.20;55.70;;;;;;5055009;28;20584;-74
2022/06/30 08:00:24;;;;;;;5.90;5.30;;;37.40;54.80;;;;;;5049416;28;20554;-72
2022/06/30 08:02:53;;;;;;;6.13;5.00;;;36.80;54.50;;;;;;5047774;28;20572;-72
2022/06/30 08:05:20;;;;;;;5.43;5.00;;;37.30;55.00;;;;;;5053438;28;20537;-73
2022/06/30 08:07:47;;;;;;;7.23;5.00;;;37.00;54.20;;;;;;5053443;28;20529;-71
2022/06/30 08:10:14;;;;;;;5.47;4.97;;;36.90;54.90;;;;;;5043633;28;20535;-72
2022/06/30 08:12:42;;;;;;;5.10;4.63;;;37.10;54.40;;;;;;5049842;28;20537;-72
2022/06/30 08:15:10;;;;;;;4.60;4.20;;;37.20;53.80;;;;;;5056736;28;20548;-71
2022/06/30 08:17:37;;;;;;;9.40;5.63;;;36.80;54.50;;;;;;5049402;28;20889;-72
2022/06/30 08:20:07;;;;;;;4.80;4.23;;;36.90;54.30;;;;;;5055148;28;20514;-73
2022/06/30 08:22:34;;;;;;;5.37;4.83;;;37.30;54.20;;;;;;5044839;28;21031;-72
2022/06/30 08:25:02;;;;;;;5.73;5.17;;;37.50;53.30;;;;;;5055156;28;20915;-72
2022/06/30 08:27:29;;;;;;;7.43;4.80;;;37.80;52.80;;;;;;5055276;28;20438;-72
2022/06/30 08:29:59;;;;;;;7.47;4.87;;;37.50;53.00;;;;;;5053771;28;20430;-71
2022/06/30 08:32:26;;;;;;;6.03;5.10;;;37.70;53.00;;;;;;5052889;28;20512;-72
2022/06/30 08:34:54;;;;;;;5.87;5.30;;;37.30;52.90;;;;;;5049580;28;20980;-72
2022/06/30 08:37:21;;;;;;;6.77;4.70;;;36.70;53.90;;;;;;5052513;28;20510;-72
2022/06/30 08:42:36;;;;;;;8.00;4.70;;;35.50;53.90;;;;;;5049212;28;20560;-73
2022/06/30 08:45:18;;;;;;;6.07;5.40;;;35.80;55.50;;;;;;5063183;28;20448;-72
2022/06/30 08:47:46;;;;;;;7.53;5.00;;;35.70;55.30;;;;;;5054549;28;20850;-73
2022/06/30 08:50:14;;;;;;;6.93;4.47;;;36.10;55.90;;;;;;5050567;28;20454;-72
2022/06/30 08:52:46;;;;;;;6.03;4.40;;;36.30;55.00;;;;;;5054710;28;20564;-72
2022/06/30 08:55:15;;;;;;;6.07;4.93;;;36.10;56.20;;;;;;5053880;28;20441;-73
2022/06/30 08:57:44;;;;;;;5.23;4.83;;;36.50;54.90;;;;;;5053538;28;20453;-73
2022/06/30 09:00:16;;;;;;;6.83;5.20;;;37.20;54.20;;;;;;5035634;28;20974;-73
2022/06/30 09:02:43;;;;;;;6.00;5.43;;;36.80;53.80;;;;;;5054381;28;20490;-74
2022/06/30 09:05:11;;;;;;;5.00;4.60;;;37.10;54.10;;;;;;5062227;28;20516;-72
2022/06/30 09:07:38;;;;;;;5.90;5.30;;;37.00;54.00;;;;;;5047486;28;21019;-73
2022/06/30 09:10:06;;;;;;;6.73;6.13;;;37.00;53.70;;;;;;5050297;28;20797;-74
2022/06/30 09:12:33;;;;;;;7.87;5.77;;;36.70;53.70;;;;;;5057938;28;20465;-74
2022/06/30 09:15:00;;;;;;;6.20;4.63;;;36.90;53.90;;;;;;5055595;28;20494;-73
2022/06/30 09:17:30;;;;;;;9.30;4.93;;;37.70;53.30;;;;;;5061594;28;20503;-73
2022/06/30 09:19:59;;;;;;;6.23;5.63;;;37.40;53.20;;;;;;5061864;28;20458;-73
2022/06/30 09:22:28;;;;;;;5.57;4.27;;;37.40;53.10;;;;;;5050865;28;20454;-72
2022/06/30 09:24:57;;;;;;;6.37;5.40;;;37.30;52.60;;;;;;5052092;28;20529;-72
2022/06/30 09:27:26;;;;;;;4.87;3.80;;;37.20;52.60;;;;;;5054965;28;20453;-73
2022/06/30 09:29:55;;;;;;;6.77;5.53;;;37.50;52.70;;;;;;5054929;28;20449;-73
2022/06/30 09:32:23;;;;;;;5.33;4.80;;;36.80;52.70;;;;;;5052435;28;20920;-74
2022/06/30 09:34:53;;;;;;;4.93;4.50;;;36.70;53.70;;;;;;5053699;28;20434;-73
2022/06/30 09:37:22;;;;;;;7.27;5.10;;;36.10;53.80;;;;;;5050980;28;20442;-72
2022/06/30 09:39:51;;;;;;;5.17;4.77;;;36.00;54.20;;;;;;5052934;28;20528;-73
2022/06/30 09:42:36;;;;;;;4.83;4.20;;;36.20;54.40;;;;;;5051879;28;20461;-73
2022/06/30 09:45:04;;;;;;;5.20;4.80;;;36.50;54.50;;;;;;5050165;28;20433;-73
2022/06/30 09:47:31;;;;;;;8.30;4.67;;;37.00;53.20;;;;;;5052853;28;20436;-73
2022/06/30 09:50:03;;;;;;;5.00;4.60;;;36.60;52.80;;;;;;5049943;28;20430;-73
2022/06/30 09:52:30;;;;;;;4.73;4.30;;;36.40;53.20;;;;;;5045712;28;20506;-73
2022/06/30 09:55:00;;;;;;;3.83;3.53;;;36.40;53.80;;;;;;5050650;28;20914;-73
2022/06/30 09:57:28;;;;;;;4.83;4.37;;;36.40;54.00;;;;;;5053035;28;20434;-71
2022/06/30 10:00:00;;;;;;;4.97;4.13;;;36.70;53.50;;;;;;5051731;28;20445;-74
2022/06/30 10:02:32;;;;;;;4.37;3.97;;;36.50;53.40;;;;;;5051643;28;20470;-74
2022/06/30 10:05:02;;;;;;;4.70;4.13;;;36.50;53.10;;;;;;5052178;28;20487;-74
2022/06/30 10:07:29;;;;;;;4.00;3.50;;;37.00;52.30;;;;;;5052653;28;20473;-73
2022/06/30 10:09:56;;;;;;;4.70;4.13;;;36.30;53.10;;;;;;5052780;28;20517;-73
2022/06/30 10:12:25;;;;;;;4.47;3.43;;;36.00;53.70;;;;;;5052231;28;20541;-73
2022/06/30 10:14:54;;;;;;;6.23;4.17;;;35.40;55.70;;;;;;5050537;28;20949;-73
2022/06/30 10:17:24;;;;;;;5.77;4.20;;;35.40;54.50;;;;;;5046817;28;20526;-73
2022/06/30 10:20:18;;;;;;;;;;;;;;;;;;;;;
2022/06/30 10:22:47;;;;;;;4.07;3.77;;;35.80;54.40;;;;;;5048977;28;20482;-73
2022/06/30 10:25:14;;;;;;;4.20;3.67;;;36.20;54.00;;;;;;5050656;28;20758;-73
2022/06/30 10:27:43;;;;;;;5.60;4.47;;;35.50;54.80;;;;;;5059396;28;20448;-74
2022/06/30 10:30:23;;;;;;;4.30;3.97;;;35.10;55.60;;;;;;5051672;28;20446;-74
2022/06/30 10:32:59;;;;;;;3.90;3.50;;;35.10;56.20;;;;;;5052855;28;20789;-74
2022/06/30 10:35:37;;;;;;;4.60;3.87;;;35.40;56.50;;;;;;5037721;28;20520;-73
2022/06/30 10:38:09;;;;;;;4.33;3.93;;;35.10;56.50;;;;;;5052853;28;20453;-74
2022/06/30 10:40:52;;;;;;;5.07;4.57;;;34.30;57.30;;;;;;5040969;28;20545;-72
2022/06/30 10:43:19;;;;;;;5.10;4.40;;;33.90;58.20;;;;;;5049158;28;20461;-74
2022/06/30 10:45:59;;;;;;;5.10;4.07;;;33.30;59.40;;;;;;5047713;28;20968;-73
2022/06/30 10:48:27;;;;;;;6.00;4.90;;;32.70;60.30;;;;;;5045103;28;20450;-72
2022/06/30 10:50:56;;;;;;;4.47;3.70;;;32.60;61.50;;;;;;5048806;28;20438;-73
2022/06/30 10:53:50;;;;;;;4.70;4.27;;;32.60;62.10;;;;;;5046706;28;20480;-73
2022/06/30 10:56:19;;;;;;;4.87;4.23;;;32.30;61.90;;;;;;5046888;28;20530;-74
2022/06/30 10:59:06;;;;;;;5.10;4.67;;;32.00;62.90;;;;;;5050006;28;20796;-74
2022/06/30 11:01:34;;;;;;;9.90;4.37;;;31.70;64.20;;;;;;5050410;28;20462;-74
2022/06/30 11:04:11;;;;;;;7.60;4.50;;;31.50;63.60;;;;;;5050984;28;20458;-73
2022/06/30 11:07:11;;;;;;;4.23;3.83;;;31.30;63.70;;;;;;5046552;28;20446;-73
2022/06/30 11:10:06;;;;;;;4.77;4.30;;;31.40;64.20;;;;;;5044822;28;20445;-73
2022/06/30 11:12:58;;;;;;;4.80;4.30;;;31.50;64.70;;;;;;5043493;28;20462;-72
2022/06/30 11:15:58;;;;;;;5.30;4.53;;;31.30;64.00;;;;;;5032961;28;20506;-74
2022/06/30 11:18:26;;;;;;;6.23;3.93;;;31.50;64.70;;;;;;5046543;28;20439;-73
2022/06/30 11:20:55;;;;;;;4.40;4.00;;;31.40;63.50;;;;;;5053242;28;20432;-72
2022/06/30 11:23:23;;;;;;;5.93;3.80;;;31.50;64.60;;;;;;5049710;28;20438;-73
2022/06/30 11:28:44;;;;;;;4.73;4.33;;;31.30;63.30;;;;;;5059610;28;20409;-73
2022/06/30 11:31:29;;;;;;;3.77;3.47;;;31.40;62.40;;;;;;5062771;28;20457;-72
2022/06/30 11:33:59;;;;;;;7.33;4.70;;;31.40;63.30;;;;;;5045494;28;20546;-74
2022/06/30 11:36:26;;;;;;;5.90;4.70;;;31.20;62.40;;;;;;5059031;28;20520;-71
2022/06/30 11:38:56;;;;;;;4.40;3.50;;;31.10;64.00;;;;;;5061113;28;20509;-72
2022/06/30 11:44:08;;;;;;;4.53;4.13;;;31.00;62.00;;;;;;5064201;28;20425;-72
2022/06/30 11:46:48;;;;;;;5.00;4.03;;;30.90;62.20;;;;;;5063296;28;20442;-72
2022/06/30 11:49:15;;;;;;;4.70;3.60;;;30.60;61.60;;;;;;5046795;28;20524;-71
2022/06/30 11:51:42;;;;;;;4.07;3.67;;;30.50;60.80;;;;;;5055879;28;20552;-72
2022/06/30 11:54:12;;;;;;;4.67;4.27;;;30.30;61.90;;;;;;5056240;28;20469;-73
2022/06/30 11:56:50;;;;;;;6.83;4.10;;;30.30;63.30;;;;;;5048787;28;20448;-73
2022/06/30 11:59:17;;;;;;;3.97;3.47;;;30.30;64.30;;;;;;5055951;28;20449;-74
2022/06/30 12:02:00;;;;;;;4.33;3.50;;;30.50;64.40;;;;;;5053905;28;21010;-73
2022/06/30 12:04:27;;;;;;;4.17;3.77;;;30.50;63.30;;;;;;5055755;28;20477;-73
2022/06/30 12:06:55;;;;;;;4.17;3.50;;;30.70;62.10;;;;;;5056161;28;20436;-73
2022/06/30 12:09:23;;;;;;;4.60;3.90;;;30.50;60.10;;;;;;5057192;28;20770;-73
2022/06/30 12:11:52;;;;;;;5.40;4.50;;;30.50;62.00;;;;;;5055571;28;20486;-73
2022/06/30 12:14:19;;;;;;;4.83;4.40;;;30.60;62.90;;;;;;5055213;28;20500;-73
2022/06/30 12:16:47;;;;;;;5.33;4.43;;;30.80;63.00;;;;;;5055577;28;20438;-73
2022/06/30 12:19:15;;;;;;;3.90;3.60;;;30.80;62.70;;;;;;5048424;28;20469;-74
2022/06/30 12:21:42;;;;;;;4.27;3.63;;;30.80;63.60;;;;;;5054353;28;20462;-72
2022/06/30 12:24:09;;;;;;;4.93;4.53;;;30.60;62.30;;;;;;5054420;28;20968;-73
2022/06/30 12:26:39;;;;;;;4.97;4.50;;;30.50;63.00;;;;;;5055470;28;20437;-74
2022/06/30 12:29:12;;;;;;;6.00;4.00;;;30.60;63.00;;;;;;5051802;28;20525;-73
2022/06/30 12:31:39;;;;;;;4.00;3.53;;;30.70;63.30;;;;;;5042334;28;20458;-73
2022/06/30 12:34:06;;;;;;;4.63;3.90;;;31.00;62.90;;;;;;5045282;28;21058;-74
2022/06/30 12:36:34;;;;;;;4.83;4.40;;;30.90;63.20;;;;;;5050717;28;20478;-73
2022/06/30 12:39:12;;;;;;;5.20;4.70;;;30.90;63.70;;;;;;5048224;28;21024;-74
2022/06/30 12:41:40;;;;;;;5.27;4.77;;;30.50;64.20;;;;;;5025326;28;20511;-73
2022/06/30 12:44:07;;;;;;;3.73;3.43;;;30.60;64.00;;;;;;5049141;28;20517;-74
2022/06/30 12:46:41;;;;;;;4.47;4.07;;;30.80;64.20;;;;;;5045049;28;20436;-73
2022/06/30 12:49:21;;;;;;;5.30;4.00;;;30.70;64.00;;;;;;5054665;28;20962;-74
2022/06/30 12:51:48;;;;;;;7.10;5.60;;;30.70;65.10;;;;;;5054862;28;20882;-73
2022/06/30 12:54:24;;;;;;;4.90;4.13;;;30.80;65.30;;;;;;5054026;28;21234;-73
2022/06/30 12:57:11;;;;;;;5.47;4.60;;;31.00;64.60;;;;;;5054280;28;20524;-73
2022/06/30 12:59:45;;;;;;;8.47;4.50;;;31.20;65.10;;;;;;5056044;28;20453;-74
2022/06/30 13:02:14;;;;;;;4.90;4.50;;;31.30;65.10;;;;;;5029698;28;20497;-73
2022/06/30 13:04:48;;;;;;;4.43;4.03;;;31.20;64.20;;;;;;5054517;28;20446;-73
2022/06/30 13:07:16;;;;;;;8.10;4.50;;;31.30;64.70;;;;;;5052274;28;20434;-72
2022/06/30 13:09:46;;;;;;;5.63;4.33;;;31.20;64.40;;;;;;5051191;28;20498;-73
2022/06/30 13:12:14;;;;;;;4.23;3.83;;;31.30;64.10;;;;;;5051687;28;20459;-73
2022/06/30 13:14:43;;;;;;;4.77;4.17;;;31.30;63.40;;;;;;5052823;28;20986;-72
2022/06/30 13:17:12;;;;;;;4.33;3.93;;;31.60;64.40;;;;;;5049480;28;20435;-72
2022/06/30 13:19:39;;;;;;;7.97;4.40;;;31.70;64.80;;;;;;5054261;28;20442;-71